Time;durP1;ratioP1;P1;durP2;ratioP2;P2;SDS_P1;SDS_P2;PMS_P1;PMS_P2;Temp;Humidity;BMP_temperature;BMP_pressure;BME280_temperature;BME280_humidity;BME280_pressure;Samples;Min_cycle;Max_cycle;Signal;HPM_P1;HPM_P2
2023/10/25 00:00:35;;;;;;;18.33;10.38;;;;;;;;;;5033468;28;20039;-83
2023/10/25 00:03:01;;;;;;;16.05;9.90;;;;;;;;;;5049009;28;20039;-84
2023/10/25 00:05:31;;;;;;;19.73;10.35;;;;;;;;;;5049424;28;20079;-84
2023/10/25 00:07:57;;;;;;;15.65;10.35;;;;;;;;;;5051662;28;20477;-84
2023/10/25 00:10:23;;;;;;;18.52;11.25;;;;;;;;;;5065521;28;20452;-85
2023/10/25 00:12:49;;;;;;;12.68;8.45;;;;;;;;;;5066763;28;20045;-85
2023/10/25 00:15:16;;;;;;;20.88;11.40;;;;;;;;;;5050002;28;20036;-84
2023/10/25 00:17:42;;;;;;;19.45;10.45;;;;;;;;;;5042920;28;20037;-84
2023/10/25 00:20:08;;;;;;;16.55;10.70;;;;;;;;;;5034324;28;20873;-84
2023/10/25 00:22:34;;;;;;;17.45;10.00;;;;;;;;;;5030988;28;20044;-83
2023/10/25 00:25:00;;;;;;;17.13;10.35;;;;;;;;;;5067715;28;20051;-83
2023/10/25 00:27:26;;;;;;;18.38;10.32;;;;;;;;;;5063982;28;20116;-84
2023/10/25 00:29:52;;;;;;;15.23;9.60;;;;;;;;;;5064676;28;20043;-84
2023/10/25 00:32:18;;;;;;;20.63;10.68;;;;;;;;;;5026260;28;20041;-84
2023/10/25 00:34:44;;;;;;;18.05;9.98;;;;;;;;;;5047827;28;20032;-84
2023/10/25 00:37:10;;;;;;;15.98;9.45;;;;;;;;;;5045780;28;20040;-83
2023/10/25 00:39:37;;;;;;;22.02;9.90;;;;;;;;;;5065715;28;20048;-84
2023/10/25 00:42:03;;;;;;;15.88;9.38;;;;;;;;;;5066729;28;20052;-85
2023/10/25 00:44:29;;;;;;;25.48;11.93;;;;;;;;;;5041230;28;20095;-84
2023/10/25 00:46:55;;;;;;;16.45;9.93;;;;;;;;;;5066655;28;20082;-84
2023/10/25 00:49:21;;;;;;;14.82;9.15;;;;;;;;;;5067504;28;20109;-84
2023/10/25 00:51:48;;;;;;;17.27;9.90;;;;;;;;;;5048757;28;20546;-83
2023/10/25 00:54:14;;;;;;;16.58;10.77;;;;;;;;;;5066507;28;20036;-84
2023/10/25 00:56:41;;;;;;;20.90;9.55;;;;;;;;;;5033197;28;20392;-84
2023/10/25 00:59:08;;;;;;;31.30;10.65;;;;;;;;;;5049886;28;20048;-83
2023/10/25 01:01:35;;;;;;;20.05;8.57;;;;;;;;;;5050913;28;20032;-90
2023/10/25 01:04:01;;;;;;;16.60;9.18;;;;;;;;;;5041742;28;20036;-89
2023/10/25 01:06:27;;;;;;;18.10;9.77;;;;;;;;;;5072467;28;20044;-89
2023/10/25 01:08:53;;;;;;;18.67;9.93;;;;;;;;;;5054824;28;20041;-87
2023/10/25 01:11:20;;;;;;;15.65;9.05;;;;;;;;;;5091314;28;20434;-91
2023/10/25 01:13:46;;;;;;;19.15;9.68;;;;;;;;;;5071740;28;20038;-92
2023/10/25 01:16:12;;;;;;;15.10;8.75;;;;;;;;;;5056145;28;20045;-91
2023/10/25 01:18:38;;;;;;;16.38;9.18;;;;;;;;;;5071698;28;20068;-91
2023/10/25 01:21:04;;;;;;;17.55;8.90;;;;;;;;;;5039003;28;20126;-85
2023/10/25 01:23:31;;;;;;;19.63;8.88;;;;;;;;;;5074477;28;20488;-93
2023/10/25 01:25:57;;;;;;;17.52;7.60;;;;;;;;;;5051214;28;20105;-86
2023/10/25 01:28:23;;;;;;;16.42;8.63;;;;;;;;;;5057876;28;20041;-91
2023/10/25 01:30:49;;;;;;;25.00;9.52;;;;;;;;;;5057018;28;20050;-86
2023/10/25 01:33:15;;;;;;;12.70;7.68;;;;;;;;;;5072666;28;20068;-93
2023/10/25 01:35:41;;;;;;;17.40;9.73;;;;;;;;;;5055495;28;20040;-85
2023/10/25 01:38:07;;;;;;;13.93;8.15;;;;;;;;;;5037882;28;20067;-93
2023/10/25 01:40:33;;;;;;;13.10;8.25;;;;;;;;;;5072142;28;20029;-95
2023/10/25 01:42:59;;;;;;;20.17;9.07;;;;;;;;;;5073179;28;20035;-87
2023/10/25 01:45:27;;;;;;;15.32;8.60;;;;;;;;;;5055026;28;20041;-94
2023/10/25 01:47:53;;;;;;;14.65;8.93;;;;;;;;;;5057708;28;20052;-92
2023/10/25 01:50:19;;;;;;;17.05;8.07;;;;;;;;;;5038629;28;20049;-90
2023/10/25 01:52:46;;;;;;;14.00;8.57;;;;;;;;;;5054260;28;20048;-92
2023/10/25 01:55:12;;;;;;;13.27;7.03;;;;;;;;;;5055497;28;20036;-89
2023/10/25 01:57:38;;;;;;;12.13;8.45;;;;;;;;;;5070220;28;20028;-91
2023/10/25 02:00:06;;;;;;;15.30;8.02;;;;;;;;;;5056340;28;20032;-89
2023/10/25 02:02:33;;;;;;;12.20;8.18;;;;;;;;;;5046526;28;20043;-91
2023/10/25 02:04:59;;;;;;;14.40;8.73;;;;;;;;;;5053654;28;20038;-91
2023/10/25 02:07:25;;;;;;;13.98;7.78;;;;;;;;;;5054274;28;20063;-90
2023/10/25 02:09:51;;;;;;;17.95;8.73;;;;;;;;;;5050077;28;20094;-86
2023/10/25 02:12:17;;;;;;;14.90;8.45;;;;;;;;;;5048913;28;20052;-81
2023/10/25 02:14:43;;;;;;;12.73;8.32;;;;;;;;;;5045920;28;20075;-81
2023/10/25 02:17:09;;;;;;;13.55;7.25;;;;;;;;;;5045624;28;20048;-81
2023/10/25 02:19:36;;;;;;;17.73;8.60;;;;;;;;;;5029310;28;20040;-80
2023/10/25 02:22:02;;;;;;;15.52;8.52;;;;;;;;;;5045537;28;20117;-81
2023/10/25 02:24:28;;;;;;;13.23;7.82;;;;;;;;;;5047004;28;20191;-81
2023/10/25 02:26:54;;;;;;;13.32;7.90;;;;;;;;;;5028647;28;20551;-81
2023/10/25 02:29:21;;;;;;;19.02;8.82;;;;;;;;;;5063848;28;20041;-82
2023/10/25 02:31:47;;;;;;;15.43;8.32;;;;;;;;;;5027220;28;20102;-83
2023/10/25 02:34:13;;;;;;;15.32;7.78;;;;;;;;;;5043402;28;20045;-82
2023/10/25 02:36:39;;;;;;;13.02;9.18;;;;;;;;;;5038596;28;20139;-81
2023/10/25 02:39:05;;;;;;;17.65;9.15;;;;;;;;;;5046809;28;20123;-81
2023/10/25 02:41:31;;;;;;;15.45;10.13;;;;;;;;;;5041746;28;20170;-82
2023/10/25 02:43:58;;;;;;;16.98;9.25;;;;;;;;;;5031393;28;20040;-81
2023/10/25 02:46:24;;;;;;;14.82;8.52;;;;;;;;;;5029272;28;20504;-82
2023/10/25 02:48:52;;;;;;;16.25;8.38;;;;;;;;;;5033424;28;20139;-83
2023/10/25 02:51:18;;;;;;;19.63;9.38;;;;;;;;;;5048241;28;20040;-81
2023/10/25 02:53:44;;;;;;;17.08;9.88;;;;;;;;;;5046418;28;20046;-82
2023/10/25 02:56:10;;;;;;;14.68;8.85;;;;;;;;;;5046761;28;20123;-80
2023/10/25 02:58:36;;;;;;;17.20;10.48;;;;;;;;;;5046740;28;20049;-82
2023/10/25 03:01:03;;;;;;;19.67;9.35;;;;;;;;;;5062387;28;20040;-82
2023/10/25 03:03:30;;;;;;;17.52;10.55;;;;;;;;;;5044478;28;20403;-81
2023/10/25 03:05:57;;;;;;;14.70;10.85;;;;;;;;;;5044828;28;20056;-81
2023/10/25 03:08:23;;;;;;;16.48;7.93;;;;;;;;;;5046112;28;20514;-82
2023/10/25 03:10:49;;;;;;;16.35;9.85;;;;;;;;;;5058135;28;20039;-83
2023/10/25 03:13:15;;;;;;;21.80;10.20;;;;;;;;;;5041176;28;20083;-83
2023/10/25 03:15:42;;;;;;;18.05;9.90;;;;;;;;;;5062645;28;20039;-82
2023/10/25 03:18:08;;;;;;;20.88;9.82;;;;;;;;;;5043638;28;20037;-82
2023/10/25 03:20:34;;;;;;;22.48;9.70;;;;;;;;;;5046892;28;20063;-81
2023/10/25 03:23:03;;;;;;;17.67;10.30;;;;;;;;;;5033170;28;20040;-81
2023/10/25 03:25:29;;;;;;;24.17;11.20;;;;;;;;;;5046324;28;20033;-82
2023/10/25 03:27:55;;;;;;;17.30;9.13;;;;;;;;;;5029674;28;20729;-85
2023/10/25 03:30:22;;;;;;;15.07;9.48;;;;;;;;;;5037339;28;20037;-81
2023/10/25 03:32:48;;;;;;;19.42;10.55;;;;;;;;;;5029122;28;20059;-81
2023/10/25 03:35:14;;;;;;;22.90;11.50;;;;;;;;;;5049305;28;20037;-82
2023/10/25 03:37:41;;;;;;;19.95;10.23;;;;;;;;;;5048041;28;20099;-83
2023/10/25 03:40:07;;;;;;;19.33;10.05;;;;;;;;;;5034811;28;20598;-81
2023/10/25 03:42:34;;;;;;;17.52;10.55;;;;;;;;;;5065246;28;20036;-81
2023/10/25 03:45:00;;;;;;;15.20;9.40;;;;;;;;;;5049948;28;20495;-82
2023/10/25 03:47:26;;;;;;;22.30;11.18;;;;;;;;;;5029959;28;20782;-83
2023/10/25 03:49:52;;;;;;;19.63;11.00;;;;;;;;;;5063333;28;20044;-82
2023/10/25 03:52:18;;;;;;;22.42;12.43;;;;;;;;;;5049881;28;20036;-85
2023/10/25 03:54:45;;;;;;;19.48;12.50;;;;;;;;;;5067533;28;20377;-83
2023/10/25 03:57:11;;;;;;;20.92;11.55;;;;;;;;;;5043856;28;20044;-83
2023/10/25 03:59:38;;;;;;;24.23;12.43;;;;;;;;;;5032487;28;20114;-83
2023/10/25 04:02:05;;;;;;;25.95;13.35;;;;;;;;;;5032358;28;20037;-81
2023/10/25 04:04:31;;;;;;;23.10;13.20;;;;;;;;;;5032867;28;20036;-84
2023/10/25 04:06:57;;;;;;;22.42;12.68;;;;;;;;;;5064663;28;20040;-80
2023/10/25 04:09:23;;;;;;;18.52;12.98;;;;;;;;;;5054563;28;20567;-83
2023/10/25 04:11:49;;;;;;;22.75;11.88;;;;;;;;;;5068350;28;20040;-82
2023/10/25 04:14:15;;;;;;;22.42;13.75;;;;;;;;;;5052176;28;20036;-81
2023/10/25 04:16:41;;;;;;;29.25;15.30;;;;;;;;;;5052971;28;20052;-81
2023/10/25 04:19:07;;;;;;;27.25;15.60;;;;;;;;;;5054919;28;20037;-83
2023/10/25 04:21:34;;;;;;;24.90;14.43;;;;;;;;;;5053941;28;20048;-82
2023/10/25 04:24:01;;;;;;;26.98;14.35;;;;;;;;;;5067898;28;20438;-82
2023/10/25 04:26:28;;;;;;;25.05;15.63;;;;;;;;;;5065711;28;20488;-84
2023/10/25 04:28:55;;;;;;;27.60;15.75;;;;;;;;;;5070154;28;20040;-84
2023/10/25 04:31:21;;;;;;;28.95;16.25;;;;;;;;;;5053563;28;20119;-87
2023/10/25 04:33:47;;;;;;;28.73;14.43;;;;;;;;;;5049519;28;20135;-88
2023/10/25 04:36:13;;;;;;;26.15;16.10;;;;;;;;;;5034939;28;20079;-88
2023/10/25 04:38:40;;;;;;;25.52;15.50;;;;;;;;;;5047222;28;20148;-87
2023/10/25 04:41:06;;;;;;;27.45;15.25;;;;;;;;;;5053837;28;20029;-87
2023/10/25 04:43:32;;;;;;;23.58;13.68;;;;;;;;;;5071549;28;20041;-86
2023/10/25 04:45:58;;;;;;;29.90;15.07;;;;;;;;;;5055227;28;20028;-88
2023/10/25 04:48:25;;;;;;;26.95;14.60;;;;;;;;;;5053495;28;20492;-89
2023/10/25 04:50:51;;;;;;;28.38;15.98;;;;;;;;;;5070886;28;20035;-89
2023/10/25 04:53:17;;;;;;;21.00;13.93;;;;;;;;;;5052778;28;20512;-89
2023/10/25 04:55:47;;;;;;;27.65;15.30;;;;;;;;;;5057637;28;20041;-89
2023/10/25 04:58:13;;;;;;;21.58;13.00;;;;;;;;;;5054791;28;20106;-88
2023/10/25 05:00:39;;;;;;;25.33;14.43;;;;;;;;;;5061680;28;20120;-88
2023/10/25 05:03:10;;;;;;;23.17;13.90;;;;;;;;;;5057474;28;20437;-89
2023/10/25 05:05:37;;;;;;;21.90;13.55;;;;;;;;;;5056774;28;20078;-88
2023/10/25 05:08:03;;;;;;;21.13;12.32;;;;;;;;;;5039038;28;20502;-89
2023/10/25 05:10:30;;;;;;;22.23;12.50;;;;;;;;;;5053187;28;20389;-88
2023/10/25 05:12:56;;;;;;;22.52;13.25;;;;;;;;;;5041370;28;20059;-89
2023/10/25 05:15:24;;;;;;;23.92;13.68;;;;;;;;;;5059140;28;20048;-87
2023/10/25 05:17:50;;;;;;;16.95;12.52;;;;;;;;;;5049961;28;20119;-88
2023/10/25 05:20:20;;;;;;;21.33;12.25;;;;;;;;;;5073694;28;20114;-89
2023/10/25 05:22:52;;;;;;;21.67;12.60;;;;;;;;;;5056201;28;20098;-89
2023/10/25 05:25:19;;;;;;;23.08;12.23;;;;;;;;;;5037543;28;20028;-90
2023/10/25 05:27:45;;;;;;;23.10;12.43;;;;;;;;;;5057712;28;20116;-89
2023/10/25 05:30:14;;;;;;;20.33;11.80;;;;;;;;;;5074368;28;20036;-89
2023/10/25 05:32:44;;;;;;;25.60;13.23;;;;;;;;;;5049763;28;20102;-89
2023/10/25 05:35:10;;;;;;;21.60;12.23;;;;;;;;;;5055509;28;20071;-88
2023/10/25 05:37:36;;;;;;;19.17;11.38;;;;;;;;;;5073544;28;20523;-89
2023/10/25 05:40:04;;;;;;;21.20;12.38;;;;;;;;;;5075637;28;20106;-90
2023/10/25 05:42:32;;;;;;;23.85;11.85;;;;;;;;;;5055767;28;20044;-86
2023/10/25 05:44:58;;;;;;;27.73;13.13;;;;;;;;;;5052244;28;20032;-88
2023/10/25 05:47:25;;;;;;;23.25;12.90;;;;;;;;;;5052094;28;20484;-88
2023/10/25 05:49:51;;;;;;;23.35;13.20;;;;;;;;;;5048133;28;20044;-89
2023/10/25 05:52:18;;;;;;;22.08;13.95;;;;;;;;;;5040096;28;20479;-91
2023/10/25 05:54:44;;;;;;;25.60;13.65;;;;;;;;;;5057938;28;20036;-88
2023/10/25 05:57:10;;;;;;;19.02;11.95;;;;;;;;;;5050210;28;20043;-88
2023/10/25 05:59:36;;;;;;;26.98;12.93;;;;;;;;;;5072589;28;20045;-87
2023/10/25 06:02:14;;;;;;;25.33;12.90;;;;;;;;;;5041382;28;20037;-88
2023/10/25 06:04:41;;;;;;;22.58;11.82;;;;;;;;;;5076132;28;20111;-87
2023/10/25 06:07:07;;;;;;;23.55;13.07;;;;;;;;;;5074390;28;20041;-90
2023/10/25 06:09:34;;;;;;;20.20;12.40;;;;;;;;;;5057122;28;20033;-88
2023/10/25 06:12:00;;;;;;;24.58;12.32;;;;;;;;;;5042330;28;20037;-90
2023/10/25 06:14:28;;;;;;;25.10;13.57;;;;;;;;;;5072504;28;20104;-86
2023/10/25 06:16:54;;;;;;;23.25;13.60;;;;;;;;;;5041548;28;20488;-88
2023/10/25 06:19:21;;;;;;;25.90;13.45;;;;;;;;;;5060218;28;20033;-89
2023/10/25 06:21:47;;;;;;;22.08;12.55;;;;;;;;;;5067134;28;20038;-90
2023/10/25 06:24:13;;;;;;;27.10;13.00;;;;;;;;;;5074137;28;20036;-88
2023/10/25 06:26:39;;;;;;;26.30;13.88;;;;;;;;;;5058624;28;20036;-90
2023/10/25 06:29:05;;;;;;;29.42;13.45;;;;;;;;;;5056128;28;20075;-87
2023/10/25 06:31:31;;;;;;;20.30;13.68;;;;;;;;;;5057536;28;20574;-88
2023/10/25 06:33:57;;;;;;;23.23;14.77;;;;;;;;;;5053725;28;20044;-90
2023/10/25 06:36:24;;;;;;;28.17;13.70;;;;;;;;;;5087185;28;20045;-89
2023/10/25 06:38:50;;;;;;;25.70;13.38;;;;;;;;;;5059100;28;20078;-89
2023/10/25 06:41:17;;;;;;;30.73;14.40;;;;;;;;;;5074285;28;20032;-89
2023/10/25 06:43:43;;;;;;;24.42;14.05;;;;;;;;;;5059199;28;20037;-89
2023/10/25 06:46:10;;;;;;;22.40;13.65;;;;;;;;;;5034007;28;20037;-89
2023/10/25 06:48:36;;;;;;;22.70;13.48;;;;;;;;;;5056407;28;20049;-89
2023/10/25 06:51:05;;;;;;;27.35;13.60;;;;;;;;;;5072466;28;20560;-86
2023/10/25 06:53:31;;;;;;;26.77;13.60;;;;;;;;;;5051645;28;20441;-87
2023/10/25 06:55:57;;;;;;;25.42;13.15;;;;;;;;;;5056659;28;20044;-87
2023/10/25 06:58:23;;;;;;;30.90;15.07;;;;;;;;;;5055837;28;20033;-87
2023/10/25 07:00:51;;;;;;;21.40;13.25;;;;;;;;;;5070516;28;20036;-86
2023/10/25 07:03:18;;;;;;;26.98;12.75;;;;;;;;;;5047907;28;20096;-86
2023/10/25 07:05:45;;;;;;;26.58;12.63;;;;;;;;;;5067711;28;20037;-86
2023/10/25 07:08:12;;;;;;;21.30;12.38;;;;;;;;;;5054225;28;20504;-87
2023/10/25 07:10:38;;;;;;;24.58;13.32;;;;;;;;;;5054575;28;20037;-86
2023/10/25 07:13:04;;;;;;;28.85;12.35;;;;;;;;;;5053526;28;20446;-88
2023/10/25 07:15:32;;;;;;;17.00;12.25;;;;;;;;;;5060078;28;20062;-87
2023/10/25 07:17:58;;;;;;;19.15;12.27;;;;;;;;;;5058980;28;20040;-87
2023/10/25 07:20:24;;;;;;;16.80;12.63;;;;;;;;;;5060250;28;20037;-88
2023/10/25 07:22:50;;;;;;;28.23;12.65;;;;;;;;;;5050593;28;20488;-88
2023/10/25 07:25:17;;;;;;;23.83;12.30;;;;;;;;;;5058907;28;20063;-88
2023/10/25 07:27:43;;;;;;;22.92;12.95;;;;;;;;;;5078933;28;20032;-87
2023/10/25 07:30:09;;;;;;;22.20;13.50;;;;;;;;;;5058373;28;20048;-88
2023/10/25 07:32:36;;;;;;;26.40;12.48;;;;;;;;;;5056430;28;20037;-87
2023/10/25 07:35:03;;;;;;;24.63;13.50;;;;;;;;;;5077707;28;20036;-88
2023/10/25 07:37:29;;;;;;;24.65;13.25;;;;;;;;;;5071910;28;20056;-88
2023/10/25 07:39:55;;;;;;;20.90;12.82;;;;;;;;;;5079117;28;20045;-88
2023/10/25 07:42:21;;;;;;;16.08;12.68;;;;;;;;;;5069662;28;20037;-87
2023/10/25 07:44:47;;;;;;;27.42;13.75;;;;;;;;;;5058897;28;20045;-88
2023/10/25 07:47:14;;;;;;;23.95;13.52;;;;;;;;;;5079159;28;20060;-87
2023/10/25 07:49:45;;;;;;;19.63;13.15;;;;;;;;;;5065019;28;20064;-87
2023/10/25 07:52:11;;;;;;;23.42;13.18;;;;;;;;;;5073224;28;20052;-87
2023/10/25 07:54:38;;;;;;;19.10;13.30;;;;;;;;;;5053957;28;20107;-86
2023/10/25 07:57:04;;;;;;;19.35;13.63;;;;;;;;;;5076626;28;20044;-86
2023/10/25 07:59:30;;;;;;;23.10;13.32;;;;;;;;;;5075492;28;20047;-86
2023/10/25 08:01:57;;;;;;;30.67;14.02;;;;;;;;;;5053035;28;20098;-84
2023/10/25 08:04:23;;;;;;;17.15;12.13;;;;;;;;;;5054630;28;20393;-84
2023/10/25 08:06:49;;;;;;;23.33;12.77;;;;;;;;;;5059096;28;20106;-84
2023/10/25 08:09:15;;;;;;;23.20;12.98;;;;;;;;;;5052416;28;20547;-85
2023/10/25 08:11:41;;;;;;;17.77;11.77;;;;;;;;;;5071162;28;20040;-85
2023/10/25 08:14:08;;;;;;;19.45;11.20;;;;;;;;;;5049409;28;20071;-86
2023/10/25 08:16:39;;;;;;;15.73;11.95;;;;;;;;;;5072172;28;20045;-85
2023/10/25 08:19:06;;;;;;;24.13;12.52;;;;;;;;;;5049152;28;20043;-84
2023/10/25 08:21:32;;;;;;;18.10;11.20;;;;;;;;;;5057377;28;20032;-84
2023/10/25 08:23:58;;;;;;;22.33;11.38;;;;;;;;;;5059302;28;20044;-86
2023/10/25 08:26:27;;;;;;;17.95;10.07;;;;;;;;;;5040247;28;20562;-85
2023/10/25 08:28:53;;;;;;;21.45;10.98;;;;;;;;;;5073714;28;20098;-85
2023/10/25 08:31:19;;;;;;;16.92;10.95;;;;;;;;;;5053579;28;20040;-85
2023/10/25 08:33:45;;;;;;;19.20;11.18;;;;;;;;;;5060349;28;20089;-84
2023/10/25 08:36:12;;;;;;;20.85;10.70;;;;;;;;;;5058438;28;20044;-84
2023/10/25 08:38:38;;;;;;;17.50;10.75;;;;;;;;;;5059241;28;20178;-84
2023/10/25 08:41:05;;;;;;;14.60;9.43;;;;;;;;;;5049519;28;20037;-85
2023/10/25 08:43:33;;;;;;;24.13;11.07;;;;;;;;;;5057262;28;20043;-83
2023/10/25 08:45:59;;;;;;;22.63;11.18;;;;;;;;;;5056377;28;20047;-85
2023/10/25 08:48:25;;;;;;;15.10;9.38;;;;;;;;;;5058677;28;20462;-84
2023/10/25 08:50:52;;;;;;;23.60;10.13;;;;;;;;;;5057756;28;20037;-86
2023/10/25 08:53:26;;;;;;;16.77;9.57;;;;;;;;;;5073500;28;20040;-86
2023/10/25 08:55:53;;;;;;;19.75;9.88;;;;;;;;;;5074195;28;20037;-85
2023/10/25 08:58:19;;;;;;;19.25;9.80;;;;;;;;;;5075344;28;20062;-87
2023/10/25 09:00:46;;;;;;;13.05;9.75;;;;;;;;;;5057698;28;20040;-85
2023/10/25 09:03:33;;;;;;;15.38;9.23;;;;;;;;;;5060165;28;20029;-87
2023/10/25 09:06:00;;;;;;;16.23;9.55;;;;;;;;;;5051201;28;20037;-87
2023/10/25 09:08:27;;;;;;;15.77;10.27;;;;;;;;;;5054357;28;20094;-87
2023/10/25 09:10:56;;;;;;;15.27;9.73;;;;;;;;;;5032923;28;20048;-87
2023/10/25 09:13:23;;;;;;;15.65;9.45;;;;;;;;;;5058915;28;20040;-89
2023/10/25 09:15:49;;;;;;;17.70;12.10;;;;;;;;;;5054204;28;20037;-86
2023/10/25 09:18:15;;;;;;;16.83;10.18;;;;;;;;;;5058414;28;20130;-85
2023/10/25 09:20:41;;;;;;;16.40;10.00;;;;;;;;;;5053648;28;20045;-86
2023/10/25 09:23:11;;;;;;;19.17;11.25;;;;;;;;;;5035176;28;20040;-85
2023/10/25 09:25:37;;;;;;;17.10;10.23;;;;;;;;;;5056184;28;20049;-85
2023/10/25 09:28:30;;;;;;;18.13;10.27;;;;;;;;;;5038996;28;20044;-86
2023/10/25 09:30:58;;;;;;;13.55;10.05;;;;;;;;;;5090487;28;20445;-85
2023/10/25 09:33:24;;;;;;;20.67;10.88;;;;;;;;;;5045568;28;20124;-84
2023/10/25 09:35:52;;;;;;;18.02;10.27;;;;;;;;;;5048476;28;20577;-85
2023/10/25 09:38:18;;;;;;;21.67;11.00;;;;;;;;;;5055212;28;20538;-85
2023/10/25 09:40:45;;;;;;;22.17;11.70;;;;;;;;;;5074699;28;20032;-85
2023/10/25 09:43:16;;;;;;;18.67;10.13;;;;;;;;;;5073454;28;20488;-83
2023/10/25 09:45:43;;;;;;;15.65;10.27;;;;;;;;;;5054981;28;20370;-83
2023/10/25 09:48:11;;;;;;;15.10;10.20;;;;;;;;;;5056924;28;20127;-85
2023/10/25 09:50:39;;;;;;;18.48;10.30;;;;;;;;;;5048815;28;20052;-86
2023/10/25 09:53:11;;;;;;;14.15;10.55;;;;;;;;;;5074777;28;20170;-86
2023/10/25 09:55:38;;;;;;;16.70;9.98;;;;;;;;;;5052226;28;20445;-85
2023/10/25 09:58:05;;;;;;;13.00;9.10;;;;;;;;;;5069658;28;20041;-85
2023/10/25 10:00:31;;;;;;;18.67;9.25;;;;;;;;;;5071450;28;20133;-84
2023/10/25 10:03:01;;;;;;;19.67;9.93;;;;;;;;;;5050169;28;20047;-84
2023/10/25 10:05:49;;;;;;;15.05;9.90;;;;;;;;;;5072240;28;20063;-85
2023/10/25 10:08:25;;;;;;;17.85;9.68;;;;;;;;;;5073482;28;20092;-87
2023/10/25 10:10:58;;;;;;;17.08;9.68;;;;;;;;;;5055598;28;20103;-87
2023/10/25 10:13:26;;;;;;;23.52;9.63;;;;;;;;;;5049913;28;20056;-89
2023/10/25 10:15:55;;;;;;;14.57;9.20;;;;;;;;;;5053461;28;20029;-88
2023/10/25 10:18:21;;;;;;;14.32;8.85;;;;;;;;;;5074623;28;20045;-89
2023/10/25 10:20:58;;;;;;;21.40;9.65;;;;;;;;;;5060811;28;20484;-86
2023/10/25 10:23:33;;;;;;;15.82;9.05;;;;;;;;;;5051162;28;20033;-86
2023/10/25 10:26:01;;;;;;;12.38;8.65;;;;;;;;;;5069167;28;20040;-85
2023/10/25 10:28:38;;;;;;;15.65;8.73;;;;;;;;;;5042089;28;20402;-85
2023/10/25 10:31:04;;;;;;;15.30;7.47;;;;;;;;;;5068671;28;20112;-84
2023/10/25 10:33:30;;;;;;;15.40;8.32;;;;;;;;;;5055544;28;20036;-85
2023/10/25 10:36:02;;;;;;;13.20;8.07;;;;;;;;;;5026970;28;20422;-85
2023/10/25 10:38:48;;;;;;;16.30;7.43;;;;;;;;;;5049828;28;20514;-85
2023/10/25 10:41:25;;;;;;;11.93;7.80;;;;;;;;;;5050464;28;20028;-85
2023/10/25 10:43:51;;;;;;;12.82;7.28;;;;;;;;;;5048479;28;20102;-84
2023/10/25 10:46:18;;;;;;;10.90;7.03;;;;;;;;;;5069319;28;20072;-84
2023/10/25 10:48:46;;;;;;;9.73;6.40;;;;;;;;;;5035640;28;20057;-85
2023/10/25 10:51:13;;;;;;;11.18;6.43;;;;;;;;;;5052534;28;20044;-84
2023/10/25 10:53:39;;;;;;;12.90;6.25;;;;;;;;;;5036936;28;20039;-86
2023/10/25 10:56:05;;;;;;;8.68;6.03;;;;;;;;;;5049828;28;20173;-85
2023/10/25 10:58:31;;;;;;;15.70;6.90;;;;;;;;;;5063916;28;20040;-85
2023/10/25 11:00:58;;;;;;;11.10;6.38;;;;;;;;;;5050830;28;20426;-84
2023/10/25 11:03:27;;;;;;;11.15;6.75;;;;;;;;;;5041330;28;20036;-86
2023/10/25 11:05:53;;;;;;;13.25;7.05;;;;;;;;;;5067229;28;20598;-84
2023/10/25 11:08:21;;;;;;;14.52;6.35;;;;;;;;;;5064655;28;20032;-85
2023/10/25 11:10:47;;;;;;;8.13;5.95;;;;;;;;;;5063792;28;20082;-84
2023/10/25 11:13:17;;;;;;;11.23;6.13;;;;;;;;;;5066901;28;20040;-85
2023/10/25 11:15:43;;;;;;;13.20;6.93;;;;;;;;;;5035403;28;20130;-84
2023/10/25 11:18:09;;;;;;;13.70;6.63;;;;;;;;;;5046818;28;20041;-85
2023/10/25 11:20:35;;;;;;;13.55;6.32;;;;;;;;;;5041128;28;20041;-85
2023/10/25 11:23:04;;;;;;;13.27;6.72;;;;;;;;;;5066692;28;20068;-86
2023/10/25 11:25:30;;;;;;;9.82;7.85;;;;;;;;;;5056654;28;20041;-86
2023/10/25 11:27:56;;;;;;;20.83;14.10;;;;;;;;;;5030120;28;20043;-84
2023/10/25 11:30:22;;;;;;;17.98;12.60;;;;;;;;;;5065430;28;20044;-84
2023/10/25 11:32:49;;;;;;;16.88;9.63;;;;;;;;;;5036201;28;20041;-85
2023/10/25 11:35:41;;;;;;;13.95;9.30;;;;;;;;;;5039999;28;20041;-85
2023/10/25 11:38:08;;;;;;;15.07;8.30;;;;;;;;;;5050529;28;20056;-84
2023/10/25 11:40:35;;;;;;;13.57;8.10;;;;;;;;;;5053867;28;20079;-87
2023/10/25 11:43:01;;;;;;;11.85;8.38;;;;;;;;;;5052778;28;20041;-87
2023/10/25 11:45:27;;;;;;;12.07;5.82;;;;;;;;;;5072591;28;20127;-85
2023/10/25 11:47:54;;;;;;;8.85;5.50;;;;;;;;;;5068983;28;20048;-85
2023/10/25 11:50:20;;;;;;;12.23;4.93;;;;;;;;;;5051608;28;20052;-85
2023/10/25 11:52:46;;;;;;;10.32;5.90;;;;;;;;;;5069386;28;20404;-84
2023/10/25 11:55:12;;;;;;;12.27;5.70;;;;;;;;;;5052165;28;20724;-84
2023/10/25 11:57:39;;;;;;;14.20;5.68;;;;;;;;;;5056513;28;20044;-86
2023/10/25 12:00:08;;;;;;;21.08;6.90;;;;;;;;;;5050554;28;20111;-88
2023/10/25 12:02:35;;;;;;;9.90;5.53;;;;;;;;;;5054842;28;20040;-87
2023/10/25 12:05:03;;;;;;;10.52;5.75;;;;;;;;;;5074257;28;20059;-87
2023/10/25 12:07:30;;;;;;;9.18;5.90;;;;;;;;;;5057649;28;20036;-86
2023/10/25 12:09:57;;;;;;;11.38;6.30;;;;;;;;;;5055524;28;20044;-87
2023/10/25 12:12:23;;;;;;;13.68;6.60;;;;;;;;;;5060741;28;20058;-88
2023/10/25 12:14:49;;;;;;;9.60;6.72;;;;;;;;;;5058523;28;20067;-87
2023/10/25 12:17:16;;;;;;;11.60;6.45;;;;;;;;;;5068975;28;20037;-86
2023/10/25 12:19:42;;;;;;;14.57;6.50;;;;;;;;;;5074999;28;20139;-87
2023/10/25 12:22:09;;;;;;;7.60;6.35;;;;;;;;;;5075077;28;20246;-88
2023/10/25 12:24:36;;;;;;;13.43;6.18;;;;;;;;;;5051308;28;20040;-86
2023/10/25 12:27:03;;;;;;;8.65;5.70;;;;;;;;;;5074714;28;20041;-88
2023/10/25 12:29:29;;;;;;;10.57;4.60;;;;;;;;;;5078022;28;20128;-88
2023/10/25 12:31:55;;;;;;;11.57;5.32;;;;;;;;;;5061322;28;20040;-88
2023/10/25 12:34:22;;;;;;;7.80;4.93;;;;;;;;;;5078600;28;20173;-88
2023/10/25 12:36:49;;;;;;;6.85;3.22;;;;;;;;;;5077089;28;20055;-86
2023/10/25 12:39:16;;;;;;;7.93;3.47;;;;;;;;;;5057972;28;20512;-86
2023/10/25 12:41:42;;;;;;;6.00;3.28;;;;;;;;;;5060752;28;20033;-87
2023/10/25 12:44:08;;;;;;;11.63;3.63;;;;;;;;;;5054239;28;20037;-85
2023/10/25 12:46:38;;;;;;;7.40;3.72;;;;;;;;;;5055049;28;20103;-84
2023/10/25 12:49:04;;;;;;;7.85;4.40;;;;;;;;;;5050700;28;20052;-84
2023/10/25 12:51:30;;;;;;;9.85;4.28;;;;;;;;;;5056006;28;20087;-85
2023/10/25 12:53:57;;;;;;;10.15;4.45;;;;;;;;;;5050174;28;20468;-85
2023/10/25 12:56:23;;;;;;;9.18;4.32;;;;;;;;;;5055280;28;20407;-85
2023/10/25 12:58:50;;;;;;;8.60;4.32;;;;;;;;;;5059580;28;20039;-90
2023/10/25 13:01:16;;;;;;;7.03;4.65;;;;;;;;;;5042969;28;20044;-83
2023/10/25 13:03:42;;;;;;;10.60;4.25;;;;;;;;;;5056253;28;20429;-84
2023/10/25 13:06:08;;;;;;;6.22;4.45;;;;;;;;;;5056151;28;20029;-85
2023/10/25 13:08:34;;;;;;;9.25;4.13;;;;;;;;;;5054441;28;20449;-84
2023/10/25 13:11:00;;;;;;;8.95;4.40;;;;;;;;;;5055402;28;20032;-84
2023/10/25 13:13:26;;;;;;;9.18;3.80;;;;;;;;;;5044296;28;20037;-84
2023/10/25 13:15:52;;;;;;;8.98;3.95;;;;;;;;;;5044804;28;20064;-85
2023/10/25 13:18:18;;;;;;;8.00;3.33;;;;;;;;;;5036420;28;20033;-82
2023/10/25 13:20:44;;;;;;;6.32;3.47;;;;;;;;;;5036563;28;20124;-87
2023/10/25 13:23:11;;;;;;;13.13;3.80;;;;;;;;;;5058530;28;20029;-85
2023/10/25 13:25:37;;;;;;;8.02;4.50;;;;;;;;;;5035778;28;20036;-86
2023/10/25 13:28:03;;;;;;;9.52;5.32;;;;;;;;;;5050696;28;20124;-85
2023/10/25 13:30:29;;;;;;;10.27;5.07;;;;;;;;;;5052777;28;20037;-85
2023/10/25 13:32:55;;;;;;;13.23;4.95;;;;;;;;;;5055204;28;20091;-85
2023/10/25 13:35:21;;;;;;;12.05;4.63;;;;;;;;;;5055131;28;20044;-83
2023/10/25 13:37:47;;;;;;;8.60;4.45;;;;;;;;;;5070162;28;20517;-85
2023/10/25 13:40:14;;;;;;;7.60;5.15;;;;;;;;;;5052197;28;20047;-85
2023/10/25 13:42:40;;;;;;;11.80;4.97;;;;;;;;;;5070475;28;20036;-85
2023/10/25 13:45:06;;;;;;;10.15;4.35;;;;;;;;;;5053491;28;20063;-86
2023/10/25 13:47:32;;;;;;;9.23;5.25;;;;;;;;;;5049388;28;20032;-85
2023/10/25 13:49:59;;;;;;;10.93;5.57;;;;;;;;;;5067733;28;20454;-83
2023/10/25 13:52:25;;;;;;;8.68;5.00;;;;;;;;;;5047436;28;20429;-83
2023/10/25 13:54:51;;;;;;;7.97;5.82;;;;;;;;;;5052451;28;20075;-85
2023/10/25 13:57:17;;;;;;;11.55;6.10;;;;;;;;;;5036553;28;20063;-85
2023/10/25 13:59:44;;;;;;;11.10;6.00;;;;;;;;;;5048438;28;20048;-85
2023/10/25 14:02:10;;;;;;;12.13;6.07;;;;;;;;;;5052966;28;20036;-85
2023/10/25 14:04:36;;;;;;;18.48;6.75;;;;;;;;;;5070529;28;20112;-85
2023/10/25 14:07:06;;;;;;;18.58;8.95;;;;;;;;;;5038931;28;20036;-85
2023/10/25 14:09:32;;;;;;;14.88;7.50;;;;;;;;;;5036232;28;20051;-84
2023/10/25 14:11:58;;;;;;;11.05;7.72;;;;;;;;;;5047461;28;20044;-85
2023/10/25 14:14:24;;;;;;;12.50;7.47;;;;;;;;;;5051348;28;20080;-83
2023/10/25 14:16:50;;;;;;;17.10;7.68;;;;;;;;;;5053452;28;20039;-83
2023/10/25 14:19:20;;;;;;;9.68;7.72;;;;;;;;;;5046484;28;20037;-91
2023/10/25 14:21:46;;;;;;;15.45;7.90;;;;;;;;;;5043901;28;20079;-85
2023/10/25 14:24:12;;;;;;;13.85;7.50;;;;;;;;;;5071522;28;20123;-84